• Join FlightAware (Why Join?)
  • Login
  • US Flag 
09:57AM EST


 

Airport Tracker/Info


-or-


 

Live Flight TrackerFlight Track Log ✈ DAL6057 ✈ 14-Aug-2014 ✈ KCMH - KDTW

Flight Track Log - Related Links

Times and Time Zones

All times are in EDT time to prevent confusion due to time zone crossing. See the DAL6057 flight status page for this flight to view local times or setup timezone preferences in your user account.

Time Position Orientation Groundspeed Altitude Reporting Facility
EDT Latitude Longitude Course Direction KTS MPH feet Rate Location/Type
06:49AM 40.0022 -82.9100 21° North 150 173 1,200  Level Indianapolis Center
06:50AM 40.0017 -82.9372 268° West 176 203 2,300 1,920 Climbing Indianapolis Center
06:50AM 40.0003 -82.9703 267° West 199 229 3,300 2,100 Climbing Indianapolis Center
06:52AM 40.0022 -83.0403 272° West 194 223 5,900 2,640 Climbing Indianapolis Center
06:53AM 40.2980 -82.6586 29° Northeast  Level FlightAware Approximate
06:53AM 40.0703 -83.0128 17° North 246 283 8,700  Level Indianapolis Center
06:54AM 40.3800 -82.6053 25° Northeast  Level FlightAware Approximate
06:54AM 40.1256 -82.9511 40° Northeast 256 295 10,700  Level Indianapolis Center
06:55AM 40.4566 -82.5634 21° North  Level FlightAware Approximate
06:55AM 40.1881 -82.8747 43° Northeast 301 346 12,100  Level Indianapolis Center
06:56AM 40.2525 -82.7956 43° Northeast 330 380 13,000 420 Climbing Indianapolis Center
06:57AM 40.3294 -82.7047 42° Northeast 361 415 13,000  Level Indianapolis Center
06:58AM 40.4256 -82.7103 357° North 346 398 13,000  Level Indianapolis Center
06:59AM 40.5156 -82.7333 349° North 330 380 13,000  Level Indianapolis Center
07:00AM 40.6039 -82.7578 348° North 327 376 13,000  Level Indianapolis Center
07:01AM 40.6928 -82.7819 348° North 326 375 13,000  Level Indianapolis Center
07:02AM 40.7836 -82.8061 349° North 326 375 13,000  Level Indianapolis Center
07:03AM 40.8883 -82.8361 348° North 326 375 13,000  Level Indianapolis Center
07:04AM 40.9939 -82.8642 349° North 326 375 13,000  Level Cleveland Center
07:05AM 41.0844 -82.8889 348° North 326 375 13,000 -60 Level Cleveland Center
07:06AM 41.1750 -82.9136 348° North 327 376 12,900 -480 Descending Cleveland Center
07:07AM 41.2686 -82.9403 348° North 337 388 12,100 -480 Descending Cleveland Center
07:08AM 41.3575 -82.9644 348° North 325 374 12,000 -60 Descending Cleveland Center
07:09AM 41.4492 -82.9914 348° North 315 362 12,000  Level Cleveland Center
07:10AM 41.5333 -83.0136 349° North 319 367 12,000  Level Cleveland Center
07:11AM 41.6317 -83.0439 347° North 322 371 12,000  Level Cleveland Center
07:12AM 41.7181 -83.0667 349° North 318 366 12,000  Level Cleveland Center
07:13AM 41.7872 -83.1208 330° Northwest 313 360 12,000  Level Cleveland Center
07:14AM 41.8722 -83.1856 330° Northwest 309 356 12,000  Level Cleveland Center
07:15AM 41.9417 -83.2372 331° Northwest 309 356 12,000  Level Cleveland Center
07:16AM 42.0189 -83.2958 331° Northwest 310 357 12,000  Level Cleveland Center
07:16AM 42.0258 -83.2989 342° North 311 358 12,000  Level Cleveland Center
07:17AM 42.0881 -83.3478 330° Northwest 271 312 12,000  Level Cleveland Center
07:17AM 42.0983 -83.3528 340° North 296 341 12,000 -420 Level Cleveland Center
07:18AM 42.1511 -83.3953 329° Northwest 223 257 11,500 -540 Descending Cleveland Center
07:19AM 42.1986 -83.4336 329° Northwest 219 252 11,000 -540 Descending Cleveland Center
07:19AM 42.2031 -83.4361 337° Northwest 216 249 11,000 -840 Level Cleveland Center
07:20AM 42.2486 -83.4661 334° Northwest 217 250 10,200 -1,020 Descending Cleveland Center
07:20AM 42.2586 -83.4647 North 218 251 10,000 -1,680 Descending Cleveland Center
07:21AM 42.3122 -83.4300 26° Northeast 232 267 8,500 -1,560 Descending Cleveland Center
07:21AM 42.3172 -83.4264 28° Northeast 232 267 8,400 -1,440 Descending Cleveland Center
07:22AM 42.3761 -83.3911 24° Northeast 228 262 6,900 -1,500 Descending Cleveland Center
07:23AM 42.4311 -83.3567 25° Northeast 222 255 5,600 -1,200 Descending Cleveland Center
07:23AM 42.4375 -83.3497 39° Northeast 227 261 5,500 -1,200 Descending Cleveland Center
07:24AM 42.4136 -83.2833 116° Southeast 243 280 4,400 -1,080 Descending Cleveland Center
07:24AM 42.4117 -83.2822 157° South 254 292 4,400 -840 Level Cleveland Center
07:25AM 42.3531 -83.2833 181° South 205 236 3,600 -780 Descending Cleveland Center
07:26AM 42.3497 -83.2850 200° South 224 258 3,600 -1,080 Level Cleveland Center
07:26AM 42.3006 -83.3100 201° Southwest 194 223 2,500 -1,200 Descending Cleveland Center
07:27AM 42.3008 -83.3108 294° West 196 226 2,400 -1,020 Descending Cleveland Center
07:27AM 42.2606 -83.3408 209° Southwest 159 183 1,500 -1,020 Descending Cleveland Center
07:28AM 42.2586 -83.3428 217° Southwest 181 208 1,400 -480 Descending Cleveland Center
07:29AM 42.2150 -83.3753 209° Southwest 168 193 900 -540 Descending Cleveland Center